Observations for PISA CIV IT-AFB, Italy (LIRP)

LIRP 230515Z 09003KT 8000 NSC 12/11 Q1017 NOSIG 
LIRP 230445Z 14003KT 7000 FEW006 11/10 Q1017 NOSIG  
LIRP 230415Z 10003KT 6000 SCT005 10/10 Q1017 NOSIG  
LIRP 230345Z 11002KT 5000 BR SCT004 10/10 Q1017 NOSIG   
LIRP 230315Z 12002KT 4500 BR SCT005 10/10 Q1017 TEMPO 3000  
LIRP 230245Z 09002KT 4000 BR SCT005 10/10 Q1017 TEMPO 3000  
LIRP 230215Z 11003KT 7000 NSC 10/10 Q1017 NOSIG 
LIRP 230145Z 12004KT 6000 NSC 10/10 Q1017 NOSIG 
LIRP 230115Z 11002KT 6000 FEW009 10/10 Q1017 NOSIG  
LIRP 230045Z 10002KT 6000 NSC 11/10 Q1017 NOSIG 
LIRP 230015Z 12002KT 5000 BR NSC 11/11 Q1017 NOSIG  
LIRP 222345Z 11002KT 6000 NSC 11/11 Q1017 NOSIG 
LIRP 222315Z 16003KT 8000 NSC 12/11 Q1016 NOSIG 
LIRP 222245Z 15003KT CAVOK 12/11 Q1016 NOSIG
LIRP 222215Z 25003KT CAVOK 12/12 Q1016 NOSIG
LIRP 222145Z 24003KT CAVOK 12/12 Q1016 NOSIG
LIRP 222115Z 22004KT CAVOK 13/12 Q1016 NOSIG
LIRP 222045Z 21005KT CAVOK 13/12 Q1016 NOSIG
LIRP 222015Z 22004KT CAVOK 13/12 Q1016 NOSIG
LIRP 221945Z 20003KT CAVOK 14/13 Q1016 NOSIG
LIRP 221915Z 25003KT CAVOK 15/13 Q1015 NOSIG
LIRP 221845Z 27004KT CAVOK 15/13 Q1015 NOSIG
LIRP 221815Z 28007KT CAVOK 16/13 Q1015 NOSIG
LIRP 221745Z 30008KT CAVOK 17/14 Q1015 NOSIG
LIRP 221715Z 30008KT 9999 FEW030 17/13 Q1015 NOSIG  
LIRP 221645Z 31009KT 9999 FEW030 18/13 Q1015 NOSIG  
LIRP 221615Z 30010KT 9999 FEW030 19/13 Q1015 NOSIG  
LIRP 221545Z 29009KT 9999 FEW030 19/13 Q1015 NOSIG  
LIRP 221515Z 31009KT 9999 FEW030 19/13 Q1015 NOSIG  
LIRP 221445Z 29009KT 9999 FEW030 SCT080 19/14 Q1015 NOSIG   
LIRP 221415Z 31007KT 9999 FEW030 SCT080 19/13 Q1016 NOSIG   
LIRP 221345Z 29008KT 9999 FEW030 SCT070 19/14 Q1016 NOSIG   
LIRP 221315Z 30009KT 9999 FEW030 SCT070 19/14 Q1016 NOSIG   
LIRP 221245Z 30007KT 9999 FEW030 SCT080 19/14 Q1016 NOSIG   
LIRP 221215Z 32007KT 9999 FEW030 SCT080 19/14 Q1016 NOSIG   
LIRP 221145Z 33005KT 9999 SCT030 SCT080 18/13 Q1016 NOSIG   
LIRP 221115Z 30006KT 9999 FEW030 SCT040 18/14 Q1016 NOSIG   
LIRP 221045Z 33004KT 9999 SCT030 SCT050 18/13 Q1016 NOSIG   
LIRP 221015Z 32005KT 9999 SCT030 SCT050 17/13 Q1016 NOSIG   
LIRP 220945Z 28004KT 9999 SCT030 SCT050 17/13 Q1016 NOSIG   
LIRP 220915Z 28004KT 9999 SCT030 SCT050 16/13 Q1016 NOSIG   
LIRP 220845Z VRB02KT 9999 SCT030 BKN050 16/13 Q1016 NOSIG   
LIRP 220815Z VRB02KT 9999 SCT040 SCT070 15/14 Q1015 NOSIG   
LIRP 220745Z VRB03KT 9999 SCT040 SCT080 15/14 Q1015 NOSIG   
LIRP 220715Z 17002KT 9999 SCT040 SCT080 14/14 Q1015 NOSIG   
LIRP 220645Z 17003KT 9999 SCT040 BKN080 13/13 Q1015 NOSIG   
LIRP 220615Z 20003KT 9999 SCT040 BKN080 13/13 Q1015 NOSIG   
LIRP 220545Z VRB01KT 9999 BKN040 SCT080 13/13 Q1015 NOSIG   
LIRP 220515Z 13002KT 9999 BKN040 SCT080 12/12 Q1015 NOSIG   
LIRP 220445Z VRB02KT 9999 BKN040 SCT080 12/12 Q1015 NOSIG